Ringwood, Illinois
Current Conditions -  °F | °C
As of 1:15 PM on Friday 24 Oct 2014 (Local Time) from KBUU Reporting Station
Overcast Overcast  
Wind Chill: 53°   Ceiling: 700
Heat Index: 53°   Visibility: 10mi
Dew Point: 50°   Wind: 5mph
Humidity: 89%   Direction: 210°SSW
Pressure: 30.01"   Gusts: NA
Location:  42.39°N, 88.3°W
Report Text: KBUU 241815Z AUTO 21004KT 10SM OVC007 12/10 A3001 RMK AO2 T01180101
Loading
Personal Weather Stations






























Interactive Weather Map
Tropical Storm Tracking
New forecast layout! Learn more

10-Day Weather Forecast

Advertisements
Track Severe Weather on mobile